createdAt,value
2019-03-08T00:00:53.732Z,59.66
2019-03-08T00:01:53.737Z,59.46
2019-03-08T00:02:53.705Z,60.49
2019-03-08T00:03:53.690Z,59.56
2019-03-08T00:04:53.691Z,59.77
2019-03-08T00:05:53.669Z,59.36
2019-03-08T00:06:53.682Z,60.49
2019-03-08T00:07:53.685Z,60.69
2019-03-08T00:08:53.645Z,60.58
2019-03-08T00:09:53.638Z,60.17
2019-03-08T00:10:53.618Z,61.00
2019-03-08T00:11:53.606Z,60.79
2019-03-08T00:12:53.600Z,61.20
2019-03-08T00:13:53.582Z,61.95
2019-03-08T00:14:53.595Z,61.95
2019-03-08T00:15:53.563Z,62.56
2019-03-08T00:16:53.554Z,62.87
2019-03-08T00:17:53.544Z,62.77
2019-03-08T00:18:53.529Z,62.66
2019-03-08T00:19:53.541Z,63.18
2019-03-08T00:20:53.508Z,63.28
2019-03-08T00:21:53.508Z,63.69
2019-03-08T00:22:53.486Z,63.90
2019-03-08T00:23:53.486Z,63.90
2019-03-08T00:24:53.484Z,63.93
2019-03-08T00:25:53.455Z,63.69
2019-03-08T00:26:53.444Z,63.90
2019-03-08T00:27:53.433Z,63.72
2019-03-08T00:28:55.152Z,63.62
2019-03-08T00:29:53.423Z,63.28
2019-03-08T00:30:53.402Z,62.90
2019-03-08T00:31:53.406Z,62.98
2019-03-08T00:32:53.384Z,63.28
2019-03-08T00:33:53.377Z,62.80
2019-03-08T00:34:53.383Z,62.87
2019-03-08T00:35:53.353Z,62.87
2019-03-08T00:36:53.337Z,62.36
2019-03-08T00:37:53.330Z,62.56
2019-03-08T00:38:53.319Z,62.70
2019-03-08T00:39:53.353Z,62.70
2019-03-08T00:40:53.296Z,62.26
2019-03-08T00:41:53.294Z,62.46
2019-03-08T00:42:53.274Z,61.74
2019-03-08T00:43:53.262Z,61.98
2019-03-08T00:44:53.266Z,61.74
2019-03-08T00:45:53.254Z,61.98
2019-03-08T00:46:53.242Z,61.74
2019-03-08T00:47:53.226Z,61.74
2019-03-08T00:48:53.210Z,61.64
2019-03-08T00:49:53.208Z,61.64
2019-03-08T00:50:53.210Z,61.64
2019-03-08T00:51:53.178Z,61.54
2019-03-08T00:52:53.166Z,61.74
2019-03-08T00:53:53.157Z,61.26
2019-03-08T00:54:53.157Z,61.64
2019-03-08T00:55:53.134Z,61.95
2019-03-08T00:56:53.130Z,61.54
2019-03-08T00:57:53.115Z,61.23
2019-03-08T00:58:53.102Z,61.64
2019-03-08T00:59:53.108Z,61.74
2019-03-08T01:00:53.080Z,62.15
2019-03-08T01:01:53.074Z,61.74
2019-03-08T01:02:53.060Z,61.33
2019-03-08T01:03:53.048Z,61.95
2019-03-08T01:04:53.043Z,61.95
2019-03-08T01:05:53.031Z,61.54
2019-03-08T01:06:53.016Z,61.02
2019-03-08T01:07:53.009Z,61.85
2019-03-08T01:08:53.011Z,61.33
2019-03-08T01:09:52.989Z,61.54
2019-03-08T01:10:52.977Z,61.74
2019-03-08T01:11:52.971Z,61.44
2019-03-08T01:12:52.955Z,61.33
2019-03-08T01:13:52.943Z,62.05
2019-03-08T01:14:52.930Z,61.74
2019-03-08T01:15:52.936Z,61.64
2019-03-08T01:16:52.921Z,62.05
2019-03-08T01:17:52.898Z,61.95
2019-03-08T01:18:52.889Z,61.54
2019-03-08T01:19:52.879Z,61.95
2019-03-08T01:20:52.889Z,61.64
2019-03-08T01:21:52.855Z,61.54
2019-03-08T01:22:52.852Z,61.95
2019-03-08T01:23:52.842Z,61.54
2019-03-08T01:24:52.828Z,61.64
2019-03-08T01:25:52.832Z,61.44
2019-03-08T01:26:52.811Z,61.23
2019-03-08T01:27:52.796Z,61.13
2019-03-08T01:28:52.781Z,61.54
2019-03-08T01:29:52.773Z,61.13
2019-03-08T01:30:52.774Z,61.33
2019-03-08T01:31:53.487Z,61.33
2019-03-08T01:32:52.742Z,61.33
2019-03-08T01:33:52.727Z,61.13
2019-03-08T01:34:52.717Z,61.33
2019-03-08T01:35:52.712Z,61.23
2019-03-08T01:36:52.700Z,61.33
2019-03-08T01:37:52.684Z,61.33
2019-03-08T01:38:52.676Z,61.54
2019-03-08T01:39:52.665Z,61.33
2019-03-08T01:40:52.671Z,61.13
2019-03-08T01:41:52.643Z,61.13
2019-03-08T01:42:52.637Z,61.23
2019-03-08T01:43:52.637Z,61.54
2019-03-08T01:44:52.612Z,61.54
2019-03-08T01:45:52.613Z,61.23
2019-03-08T01:46:52.592Z,61.13
2019-03-08T01:47:52.582Z,61.54
2019-03-08T01:48:52.574Z,61.33
2019-03-08T01:49:52.558Z,61.44
2019-03-08T01:50:52.562Z,61.33
2019-03-08T01:51:52.536Z,61.33
2019-03-08T01:52:52.525Z,61.13
2019-03-08T01:53:52.526Z,61.44
2019-03-08T01:54:52.504Z,61.33
2019-03-08T01:55:52.534Z,61.44
2019-03-08T01:56:52.490Z,61.54
2019-03-08T01:57:52.477Z,61.74
2019-03-08T01:58:52.460Z,61.54
2019-03-08T01:59:52.466Z,61.95
2019-03-08T02:00:52.453Z,62.26
2019-03-08T02:01:52.442Z,61.95
2019-03-08T02:02:52.418Z,62.77
2019-03-08T02:03:52.409Z,62.46
2019-03-08T02:04:52.396Z,61.85
2019-03-08T02:05:52.393Z,62.08
2019-03-08T02:06:52.399Z,61.64
2019-03-08T02:07:52.369Z,62.05
2019-03-08T02:08:52.354Z,62.18
2019-03-08T02:09:52.343Z,62.18
2019-03-08T02:10:52.333Z,62.18
2019-03-08T02:11:52.334Z,62.29
2019-03-08T02:12:52.311Z,62.29
2019-03-08T02:13:52.303Z,62.59
2019-03-08T02:14:52.289Z,62.70
2019-03-08T02:15:52.278Z,62.90
2019-03-08T02:16:52.306Z,62.39
2019-03-08T02:17:52.256Z,63.21
2019-03-08T02:18:52.247Z,63.00
2019-03-08T02:19:52.238Z,62.70
2019-03-08T02:20:52.424Z,62.80
2019-03-08T02:21:52.234Z,62.90
2019-03-08T02:22:52.231Z,62.90
2019-03-08T02:23:52.197Z,63.31
2019-03-08T02:24:52.218Z,63.31
2019-03-08T02:25:52.177Z,63.96
2019-03-08T02:26:52.176Z,63.54
2019-03-08T02:27:52.152Z,64.34
2019-03-08T02:28:52.139Z,64.37
2019-03-08T02:29:52.134Z,64.88
2019-03-08T02:30:52.117Z,65.39
2019-03-08T02:31:52.129Z,65.39
2019-03-08T02:32:52.098Z,65.60
2019-03-08T02:33:52.087Z,66.22
2019-03-08T02:34:52.090Z,66.25
2019-03-08T02:35:52.066Z,65.94
2019-03-08T02:36:52.071Z,65.94
2019-03-08T02:37:52.043Z,67.58
2019-03-08T02:38:52.032Z,67.41
2019-03-08T02:39:52.022Z,67.27
2019-03-08T02:40:52.027Z,67.48
2019-03-08T02:41:52.014Z,67.58
2019-03-08T02:42:51.990Z,67.92
2019-03-08T02:43:51.978Z,68.02
2019-03-08T02:44:51.971Z,67.61
2019-03-08T02:45:51.968Z,68.02
2019-03-08T02:46:51.963Z,68.64
2019-03-08T02:47:51.936Z,68.43
2019-03-08T02:48:51.928Z,68.95
2019-03-08T02:49:51.930Z,68.85
2019-03-08T02:50:51.917Z,69.77
2019-03-08T02:51:51.908Z,69.46
2019-03-08T02:52:51.900Z,69.46
2019-03-08T02:53:51.876Z,69.36
2019-03-08T02:54:51.868Z,69.26
2019-03-08T02:55:51.853Z,69.05
2019-03-08T02:56:51.870Z,69.15
2019-03-08T02:57:51.835Z,69.39
2019-03-08T02:58:51.822Z,69.49
2019-03-08T02:59:51.830Z,69.49
2019-03-08T03:00:51.800Z,69.39
2019-03-08T03:01:51.794Z,70.01
2019-03-08T03:02:51.797Z,69.15
2019-03-08T03:03:51.769Z,69.39
2019-03-08T03:04:51.761Z,69.90
2019-03-08T03:05:51.748Z,69.80
2019-03-08T03:06:51.742Z,69.70
2019-03-08T03:07:51.743Z,69.70
2019-03-08T03:08:51.718Z,69.49
2019-03-08T03:09:51.736Z,69.70
2019-03-08T03:10:51.701Z,69.29
2019-03-08T03:11:51.686Z,69.80
2019-03-08T03:12:51.708Z,69.87
2019-03-08T03:13:51.691Z,70.83
2019-03-08T03:14:51.653Z,71.34
2019-03-08T03:15:51.641Z,73.71
2019-03-08T03:16:51.631Z,73.61
2019-03-08T03:17:51.653Z,76.38
2019-03-08T03:18:51.611Z,77.92
2019-03-08T03:19:51.600Z,79.57
2019-03-08T03:20:51.597Z,80.33
2019-03-08T03:21:51.586Z,80.16
2019-03-08T03:22:51.583Z,81.81
2019-03-08T03:23:51.558Z,83.90
2019-03-08T03:24:51.547Z,83.59
2019-03-08T03:25:51.535Z,82.87
2019-03-08T03:26:51.529Z,83.63
2019-03-08T03:27:51.535Z,84.25
2019-03-08T03:28:51.504Z,85.79
2019-03-08T03:29:51.496Z,86.45
2019-03-08T03:30:51.491Z,85.83
2019-03-08T03:31:51.475Z,86.39
2019-03-08T03:32:51.478Z,87.52
2019-03-08T03:33:51.453Z,88.62
2019-03-08T03:34:51.448Z,89.38
2019-03-08T03:35:51.445Z,89.07
2019-03-08T03:36:51.421Z,89.58
2019-03-08T03:37:51.437Z,88.56
2019-03-08T03:38:51.409Z,89.52
2019-03-08T03:39:51.397Z,87.66
2019-03-08T03:40:51.427Z,88.80
2019-03-08T03:41:51.385Z,89.73
2019-03-08T03:42:51.393Z,87.98
2019-03-08T03:43:51.349Z,89.62
2019-03-08T03:44:51.347Z,87.46
2019-03-08T03:45:51.327Z,87.35
2019-03-08T03:46:51.344Z,87.26
2019-03-08T03:47:51.344Z,87.87
2019-03-08T03:48:51.300Z,88.18
2019-03-08T03:49:51.303Z,88.08
2019-03-08T03:50:51.279Z,87.98
2019-03-08T03:51:51.265Z,87.77
2019-03-08T03:52:51.269Z,87.66
2019-03-08T03:53:51.246Z,86.53
2019-03-08T03:54:51.247Z,87.40
2019-03-08T03:55:51.240Z,87.19
2019-03-08T03:56:51.220Z,88.12
2019-03-08T03:57:51.219Z,87.19
2019-03-08T03:58:51.191Z,87.40
2019-03-08T03:59:51.182Z,85.23
2019-03-08T04:00:51.170Z,85.13
2019-03-08T04:01:51.165Z,86.57
2019-03-08T04:02:51.188Z,85.95
2019-03-08T04:03:51.145Z,86.05
2019-03-08T04:04:51.132Z,86.47
2019-03-08T04:05:51.123Z,85.64
2019-03-08T04:06:51.115Z,85.75
2019-03-08T04:07:51.097Z,85.64
2019-03-08T04:08:51.104Z,86.36
2019-03-08T04:09:51.074Z,85.33
2019-03-08T04:10:51.088Z,83.78
2019-03-08T04:11:51.067Z,83.68
2019-03-08T04:12:51.067Z,84.30
2019-03-08T04:13:51.061Z,84.41
2019-03-08T04:14:51.035Z,85.33
2019-03-08T04:15:51.014Z,84.72
2019-03-08T04:16:51.001Z,85.75
2019-03-08T04:17:51.016Z,84.61
2019-03-08T04:18:51.003Z,84.81
2019-03-08T04:19:50.971Z,83.78
2019-03-08T04:20:50.961Z,85.44
2019-03-08T04:21:50.964Z,84.20
2019-03-08T04:22:50.961Z,84.81
2019-03-08T04:23:50.966Z,86.05
2019-03-08T04:24:50.963Z,86.78
2019-03-08T04:25:50.908Z,86.16
2019-03-08T04:26:50.898Z,85.95
2019-03-08T04:27:50.903Z,84.72
2019-03-08T04:28:50.894Z,86.26
2019-03-08T04:29:50.884Z,83.06
2019-03-08T04:30:50.858Z,84.20
2019-03-08T04:31:50.872Z,84.41
2019-03-08T04:32:50.886Z,84.30
2019-03-08T04:33:50.845Z,83.99
2019-03-08T04:34:50.817Z,83.78
2019-03-08T04:35:50.828Z,84.72
2019-03-08T04:36:50.822Z,84.57
2019-03-08T04:37:50.797Z,83.78
2019-03-08T04:38:50.815Z,85.85
2019-03-08T04:39:50.789Z,84.72
2019-03-08T04:40:50.771Z,84.09
2019-03-08T04:41:50.745Z,82.86
2019-03-08T04:42:50.744Z,82.71
2019-03-08T04:43:50.754Z,83.68
2019-03-08T04:44:50.716Z,82.71
2019-03-08T04:45:50.700Z,83.06
2019-03-08T04:46:50.692Z,82.92
2019-03-08T04:47:50.680Z,82.82
2019-03-08T04:48:50.711Z,81.89
2019-03-08T04:49:50.669Z,80.79
2019-03-08T04:50:50.662Z,80.38
2019-03-08T04:51:50.654Z,81.79
2019-03-08T04:52:50.628Z,81.99
2019-03-08T04:53:50.629Z,81.48
2019-03-08T04:54:50.606Z,82.20
2019-03-08T04:55:50.609Z,82.71
2019-03-08T04:56:50.612Z,82.30
2019-03-08T04:57:50.620Z,81.99
2019-03-08T04:58:50.577Z,79.41
2019-03-08T04:59:50.552Z,79.41
2019-03-08T05:00:50.542Z,79.21
2019-03-08T05:01:50.551Z,80.04
2019-03-08T05:02:50.525Z,79.93
2019-03-08T05:03:50.511Z,79.76
2019-03-08T05:04:50.518Z,79.35
2019-03-08T05:05:50.489Z,79.11
2019-03-08T05:06:50.479Z,79.52
2019-03-08T05:07:50.473Z,79.11
2019-03-08T05:08:50.458Z,79.31
2019-03-08T05:09:50.459Z,79.11
2019-03-08T05:10:50.453Z,80.76
2019-03-08T05:11:50.428Z,79.31
2019-03-08T05:12:50.420Z,79.52
2019-03-08T05:13:50.416Z,79.31
2019-03-08T05:14:50.450Z,79.11
2019-03-08T05:15:50.390Z,79.52
2019-03-08T05:16:50.388Z,81.41
2019-03-08T05:17:50.365Z,80.76
2019-03-08T05:18:50.358Z,80.24
2019-03-08T05:19:50.363Z,78.90
2019-03-08T05:20:50.333Z,79.52
2019-03-08T05:21:50.323Z,79.35
2019-03-08T05:22:50.311Z,77.59
2019-03-08T05:23:50.313Z,79.00
2019-03-08T05:24:50.308Z,78.83
2019-03-08T05:25:50.280Z,78.31
2019-03-08T05:26:50.270Z,79.14
2019-03-08T05:27:50.268Z,79.04
2019-03-08T05:28:50.266Z,79.00
2019-03-08T05:29:50.255Z,78.83
2019-03-08T05:30:50.229Z,78.21
2019-03-08T05:31:50.220Z,78.83
2019-03-08T05:32:50.213Z,78.01
2019-03-08T05:33:50.198Z,79.04
2019-03-08T05:34:50.200Z,79.45
2019-03-08T05:35:50.175Z,78.83
2019-03-08T05:36:50.165Z,78.83
2019-03-08T05:37:50.154Z,79.59
2019-03-08T05:38:50.145Z,79.35
2019-03-08T05:39:50.147Z,78.21
2019-03-08T05:40:50.124Z,78.11
2019-03-08T05:41:50.113Z,78.11
2019-03-08T05:42:50.103Z,77.70
2019-03-08T05:43:50.096Z,78.83
2019-03-08T05:44:50.096Z,79.45
2019-03-08T05:45:50.070Z,79.35
2019-03-08T05:46:50.061Z,78.94
2019-03-08T05:47:50.050Z,78.94
2019-03-08T05:48:50.056Z,78.42
2019-03-08T05:49:50.042Z,78.21
2019-03-08T05:50:50.024Z,77.80
2019-03-08T05:51:50.010Z,77.59
2019-03-08T05:52:49.999Z,77.49
2019-03-08T05:53:49.996Z,78.11
2019-03-08T05:54:49.993Z,77.59
2019-03-08T05:55:49.966Z,79.04
2019-03-08T05:56:49.957Z,78.83
2019-03-08T05:57:49.947Z,79.14
2019-03-08T05:58:49.940Z,78.52
2019-03-08T05:59:49.938Z,77.49
2019-03-08T06:00:49.944Z,77.59
2019-03-08T06:01:49.916Z,77.59
2019-03-08T06:02:49.895Z,77.91
2019-03-08T06:03:49.886Z,79.04
2019-03-08T06:04:49.884Z,79.35
2019-03-08T06:05:49.863Z,79.00
2019-03-08T06:06:49.856Z,79.62
2019-03-08T06:07:49.852Z,78.38
2019-03-08T06:08:49.831Z,77.97
2019-03-08T06:09:49.835Z,77.66
2019-03-08T06:10:49.812Z,77.56
2019-03-08T06:11:49.800Z,77.56
2019-03-08T06:12:49.806Z,76.84
2019-03-08T06:13:49.779Z,77.56
2019-03-08T06:14:49.786Z,77.97
2019-03-08T06:15:49.756Z,77.66
2019-03-08T06:16:49.746Z,77.56
2019-03-08T06:17:49.736Z,77.76
2019-03-08T06:18:49.726Z,76.84
2019-03-08T06:19:49.760Z,77.11
2019-03-08T06:20:49.711Z,77.04
2019-03-08T06:21:49.696Z,77.35
2019-03-08T06:22:49.689Z,77.35
2019-03-08T06:23:49.676Z,77.66
2019-03-08T06:24:49.665Z,77.42
2019-03-08T06:25:49.658Z,77.15
2019-03-08T06:26:49.642Z,76.90
2019-03-08T06:27:49.631Z,77.01
2019-03-08T06:28:49.621Z,77.01
2019-03-08T06:29:49.619Z,77.22
2019-03-08T06:30:49.620Z,76.90
2019-03-08T06:31:49.590Z,77.62
2019-03-08T06:32:49.582Z,77.80
2019-03-08T06:33:49.576Z,77.31
2019-03-08T06:34:49.559Z,75.87
2019-03-08T06:35:49.556Z,76.15
2019-03-08T06:36:49.537Z,76.15
2019-03-08T06:37:49.536Z,77.18
2019-03-08T06:38:49.524Z,76.46
2019-03-08T06:39:49.506Z,75.94
2019-03-08T06:40:49.498Z,76.87
2019-03-08T06:41:49.485Z,77.28
2019-03-08T06:42:49.491Z,76.73
2019-03-08T06:43:49.478Z,76.83
2019-03-08T06:44:49.453Z,77.14
2019-03-08T06:45:49.458Z,76.73
2019-03-08T06:46:49.433Z,77.04
2019-03-08T06:47:49.421Z,76.83
2019-03-08T06:48:49.411Z,76.63
2019-03-08T06:49:49.408Z,76.42
2019-03-08T06:50:49.402Z,76.42
2019-03-08T06:51:49.382Z,77.04
2019-03-08T06:52:49.376Z,77.14
2019-03-08T06:53:49.363Z,76.93
2019-03-08T06:54:49.349Z,76.83
2019-03-08T06:55:49.357Z,77.04
2019-03-08T06:56:49.331Z,76.83
2019-03-08T06:57:49.333Z,76.53
2019-03-08T06:58:49.306Z,77.25
2019-03-08T06:59:49.299Z,77.25
2019-03-08T07:00:49.289Z,76.73
2019-03-08T07:01:49.276Z,78.07
2019-03-08T07:02:49.270Z,77.66
2019-03-08T07:03:49.259Z,76.87
2019-03-08T07:04:49.242Z,76.73
2019-03-08T07:05:49.237Z,77.48
2019-03-08T07:06:49.224Z,77.59
2019-03-08T07:07:49.214Z,77.38
2019-03-08T07:08:49.201Z,77.59
2019-03-08T07:09:49.191Z,77.59
2019-03-08T07:10:49.189Z,77.08
2019-03-08T07:11:49.172Z,77.45
2019-03-08T07:12:49.159Z,77.25
2019-03-08T07:13:49.150Z,77.55
2019-03-08T07:14:49.148Z,77.04
2019-03-08T07:15:49.133Z,76.83
2019-03-08T07:16:49.123Z,77.25
2019-03-08T07:17:49.113Z,77.45
2019-03-08T07:18:49.100Z,76.73
2019-03-08T07:19:49.087Z,76.73
2019-03-08T07:20:49.081Z,77.14
2019-03-08T07:21:49.064Z,76.73
2019-03-08T07:22:49.070Z,76.83
2019-03-08T07:23:49.047Z,76.93
2019-03-08T07:24:49.033Z,77.04
2019-03-08T07:25:52.592Z,76.83
2019-03-08T07:26:50.012Z,77.14
2019-03-08T07:27:49.002Z,76.39
2019-03-08T07:28:49.002Z,75.81
2019-03-08T07:29:48.980Z,75.18
2019-03-08T07:30:57.715Z,75.08
2019-03-08T07:31:49.964Z,74.67
2019-03-08T07:32:48.958Z,75.18
2019-03-08T07:33:53.087Z,75.18
2019-03-08T07:34:48.929Z,74.36
2019-03-08T07:35:48.918Z,73.95
2019-03-08T07:36:48.914Z,73.95
2019-03-08T07:37:48.899Z,73.71
2019-03-08T07:38:48.885Z,73.95
2019-03-08T07:39:48.878Z,73.54
2019-03-08T07:40:48.870Z,73.81
2019-03-08T07:41:48.881Z,72.78
2019-03-08T07:42:48.853Z,73.74
2019-03-08T07:43:48.837Z,72.81
2019-03-08T07:44:48.824Z,73.23
2019-03-08T07:45:48.815Z,73.09
2019-03-08T07:46:48.820Z,72.68
2019-03-08T07:47:48.793Z,72.68
2019-03-08T07:48:48.782Z,72.68
2019-03-08T07:49:48.770Z,72.47
2019-03-08T07:50:48.762Z,72.06
2019-03-08T07:51:48.766Z,71.20
2019-03-08T07:52:48.743Z,71.31
2019-03-08T07:53:48.729Z,70.28
2019-03-08T07:54:52.854Z,69.53
2019-03-08T07:55:48.709Z,69.15
2019-03-08T07:56:48.714Z,69.12
2019-03-08T07:57:48.690Z,70.04
2019-03-08T07:58:48.678Z,69.53
2019-03-08T07:59:53.670Z,69.49
2019-03-08T08:00:49.674Z,69.42
2019-03-08T08:01:48.662Z,68.77
2019-03-08T08:02:48.638Z,69.53
2019-03-08T08:03:48.627Z,69.39
2019-03-08T08:04:48.617Z,69.09
2019-03-08T08:05:57.316Z,70.01
2019-03-08T08:06:49.605Z,69.60
2019-03-08T08:07:48.584Z,70.11
2019-03-08T08:08:51.663Z,69.09
2019-03-08T08:09:48.563Z,70.01
2019-03-08T08:10:48.554Z,70.11
2019-03-08T08:11:48.554Z,69.18
2019-03-08T08:12:48.535Z,69.67
2019-03-08T08:13:48.526Z,68.74
2019-03-08T08:14:48.513Z,67.82
2019-03-08T08:15:48.506Z,68.19
2019-03-08T08:16:48.513Z,67.68
2019-03-08T08:17:48.479Z,67.48
2019-03-08T08:18:48.468Z,67.38
2019-03-08T08:19:48.457Z,67.35
2019-03-08T08:20:48.474Z,67.44
2019-03-08T08:21:48.440Z,66.28
2019-03-08T08:22:48.453Z,65.88
2019-03-08T08:23:48.418Z,67.21
2019-03-08T08:24:48.404Z,65.84
2019-03-08T08:25:48.395Z,66.25
2019-03-08T08:26:48.386Z,65.64
2019-03-08T08:27:48.392Z,65.64
2019-03-08T08:28:50.170Z,66.25
2019-03-08T08:29:48.362Z,65.33
2019-03-08T08:30:48.347Z,66.36
2019-03-08T08:31:48.328Z,66.19
2019-03-08T08:32:48.331Z,64.51
2019-03-08T08:33:48.308Z,65.98
2019-03-08T08:34:48.298Z,65.67
2019-03-08T08:35:48.288Z,65.36
2019-03-08T08:36:48.279Z,64.51
2019-03-08T08:37:48.285Z,64.85
2019-03-08T08:38:48.267Z,64.75
2019-03-08T08:39:48.246Z,63.93
2019-03-08T08:40:48.233Z,64.03
2019-03-08T08:41:48.224Z,63.31
2019-03-08T08:42:48.223Z,63.31
2019-03-08T08:43:48.204Z,63.72
2019-03-08T08:44:48.192Z,63.82
2019-03-08T08:45:48.183Z,62.39
2019-03-08T08:46:48.188Z,62.49
2019-03-08T08:47:48.176Z,62.39
2019-03-08T08:48:48.145Z,62.08
2019-03-08T08:49:54.822Z,62.36
2019-03-08T08:50:49.161Z,61.95
2019-03-08T08:51:48.129Z,62.26
2019-03-08T08:52:48.116Z,61.00
2019-03-08T08:53:48.093Z,60.31
2019-03-08T08:54:48.082Z,60.58
2019-03-08T08:55:48.073Z,59.69
2019-03-08T08:56:48.064Z,60.58
2019-03-08T08:57:48.065Z,59.56
2019-03-08T08:58:48.039Z,60.49
2019-03-08T08:59:48.029Z,59.87
2019-03-08T09:00:48.026Z,59.77
2019-03-08T09:01:48.008Z,60.56
2019-03-08T09:02:48.008Z,59.23
2019-03-08T09:03:47.989Z,59.74
2019-03-08T09:04:47.977Z,59.74
2019-03-08T09:05:47.968Z,59.02
2019-03-08T09:06:47.954Z,59.36
2019-03-08T09:07:47.970Z,59.02
2019-03-08T09:08:47.937Z,57.79
2019-03-08T09:09:47.924Z,59.36
2019-03-08T09:10:47.912Z,58.81
2019-03-08T09:11:52.476Z,59.77
2019-03-08T09:12:48.910Z,59.56
2019-03-08T09:13:47.895Z,59.66
2019-03-08T09:14:47.874Z,59.36
2019-03-08T09:15:47.865Z,60.58
2019-03-08T09:16:47.864Z,60.89
2019-03-08T09:17:47.840Z,60.89
2019-03-08T09:18:47.845Z,61.30
2019-03-08T09:19:47.817Z,60.89
2019-03-08T09:20:47.813Z,61.00
2019-03-08T09:21:47.797Z,60.41
2019-03-08T09:22:47.790Z,60.49
2019-03-08T09:23:47.815Z,60.49
2019-03-08T09:24:47.770Z,59.59
2019-03-08T09:25:47.754Z,59.15
2019-03-08T09:26:47.744Z,59.80
2019-03-08T09:27:47.744Z,60.38
2019-03-08T09:28:47.769Z,59.77
2019-03-08T09:29:47.711Z,59.87
2019-03-08T09:30:47.703Z,59.36
2019-03-08T09:31:47.691Z,58.84
2019-03-08T09:32:47.696Z,58.54
2019-03-08T09:33:47.687Z,57.71
2019-03-08T09:34:47.661Z,57.82
2019-03-08T09:35:47.648Z,57.41
2019-03-08T09:36:47.638Z,58.12
2019-03-08T09:37:47.627Z,57.69
2019-03-08T09:38:47.632Z,57.48
2019-03-08T09:39:47.609Z,57.38
2019-03-08T09:40:47.604Z,57.66
2019-03-08T09:41:47.585Z,56.13
2019-03-08T09:42:47.576Z,55.58
2019-03-08T09:43:47.581Z,55.28
2019-03-08T09:44:47.553Z,55.38
2019-03-08T09:45:47.566Z,55.58
2019-03-08T09:46:49.251Z,55.28
2019-03-08T09:47:47.526Z,55.15
2019-03-08T09:48:48.926Z,55.46
2019-03-08T09:49:47.500Z,55.36
2019-03-08T09:50:47.492Z,54.95
2019-03-08T09:51:47.480Z,55.26
2019-03-08T09:52:47.467Z,55.02
2019-03-08T09:53:47.475Z,54.61
2019-03-08T09:54:47.453Z,54.13
2019-03-08T09:55:47.436Z,53.08
2019-03-08T09:56:47.427Z,52.37
2019-03-08T09:57:47.418Z,51.95
2019-03-08T09:58:47.429Z,52.26
2019-03-08T09:59:47.394Z,52.37
2019-03-08T10:00:47.943Z,52.06
2019-03-08T10:01:47.376Z,53.49
2019-03-08T10:02:47.363Z,53.52
2019-03-08T10:03:47.366Z,52.90
2019-03-08T10:04:47.343Z,50.65
2019-03-08T10:05:47.332Z,51.24
2019-03-08T10:06:47.320Z,50.42
2019-03-08T10:07:47.311Z,51.06
2019-03-08T10:08:47.311Z,50.34
2019-03-08T10:09:47.289Z,50.65
2019-03-08T10:10:47.278Z,50.65
2019-03-08T10:11:47.275Z,48.50
2019-03-08T10:12:47.261Z,48.81
2019-03-08T10:13:47.263Z,48.30
2019-03-08T10:14:47.239Z,48.40
2019-03-08T10:15:47.224Z,48.79
2019-03-08T10:16:47.214Z,48.68
2019-03-08T10:17:47.206Z,48.97
2019-03-08T10:18:47.195Z,48.76
2019-03-08T10:19:47.194Z,48.76
2019-03-08T10:20:47.171Z,48.35
2019-03-08T10:21:47.162Z,47.74
2019-03-08T10:22:47.152Z,48.23
2019-03-08T10:23:47.139Z,48.33
2019-03-08T10:24:47.142Z,49.05
2019-03-08T10:25:47.119Z,47.29
2019-03-08T10:26:47.108Z,46.96
2019-03-08T10:27:47.120Z,47.27
2019-03-08T10:28:47.087Z,46.16
2019-03-08T10:29:47.090Z,47.69
2019-03-08T10:30:47.065Z,47.39
2019-03-08T10:31:47.056Z,46.98
2019-03-08T10:32:47.052Z,47.19
2019-03-08T10:33:47.037Z,47.88
2019-03-08T10:34:47.038Z,45.84
2019-03-08T10:35:47.016Z,45.02
2019-03-08T10:36:47.003Z,44.61
2019-03-08T10:37:46.994Z,45.73
2019-03-08T10:38:46.987Z,45.43
2019-03-08T10:39:46.986Z,45.94
2019-03-08T10:40:46.961Z,45.84
2019-03-08T10:41:46.950Z,45.73
2019-03-08T10:42:46.939Z,44.31
2019-03-08T10:43:46.930Z,44.81
2019-03-08T10:44:46.968Z,44.43
2019-03-08T10:45:46.908Z,44.20
2019-03-08T10:46:46.899Z,44.51
2019-03-08T10:47:55.633Z,43.59
2019-03-08T10:48:47.875Z,43.38
2019-03-08T10:49:54.873Z,43.79
2019-03-08T10:50:47.855Z,43.77
2019-03-08T10:51:46.844Z,43.26
2019-03-08T10:52:46.840Z,44.08
2019-03-08T10:53:46.843Z,42.55
2019-03-08T10:54:46.822Z,42.02
2019-03-08T10:55:46.804Z,41.51
2019-03-08T10:56:46.792Z,43.04
2019-03-08T10:57:46.781Z,42.73
2019-03-08T10:58:46.772Z,42.94
2019-03-08T10:59:46.780Z,43.65
2019-03-08T11:00:46.753Z,42.41
2019-03-08T11:01:46.738Z,42.82
2019-03-08T11:02:48.163Z,43.32
2019-03-08T11:03:46.718Z,42.30
2019-03-08T11:04:46.706Z,42.61
2019-03-08T11:05:46.708Z,42.00
2019-03-08T11:06:46.687Z,42.41
2019-03-08T11:07:46.682Z,42.30
2019-03-08T11:08:46.665Z,42.00
2019-03-08T11:09:46.657Z,41.27
2019-03-08T11:10:48.434Z,41.37
2019-03-08T11:11:46.633Z,41.37
2019-03-08T11:12:46.625Z,41.16
2019-03-08T11:13:46.618Z,41.88
2019-03-08T11:14:46.601Z,41.49
2019-03-08T11:15:46.941Z,41.59
2019-03-08T11:16:46.588Z,42.30
2019-03-08T11:17:50.857Z,42.30
2019-03-08T11:18:46.560Z,41.47
2019-03-08T11:19:46.548Z,40.94
2019-03-08T11:20:46.568Z,40.03
2019-03-08T11:21:46.530Z,40.84
2019-03-08T11:22:46.515Z,41.25
2019-03-08T11:23:46.508Z,40.84
2019-03-08T11:24:46.499Z,41.14
2019-03-08T11:25:46.498Z,41.23
2019-03-08T11:26:46.479Z,39.72
2019-03-08T11:27:46.466Z,39.92
2019-03-08T11:28:46.455Z,40.74
2019-03-08T11:29:46.442Z,40.14
2019-03-08T11:30:53.767Z,41.88
2019-03-08T11:31:47.430Z,41.89
2019-03-08T11:32:46.488Z,42.21
2019-03-08T11:33:46.401Z,42.33
2019-03-08T11:34:52.194Z,42.82
2019-03-08T11:35:47.390Z,43.12
2019-03-08T11:36:46.367Z,43.02
2019-03-08T11:37:46.358Z,43.43
2019-03-08T11:38:46.347Z,42.71
2019-03-08T11:39:46.336Z,43.23
2019-03-08T11:40:46.335Z,43.12
2019-03-08T11:41:46.312Z,43.02
2019-03-08T11:42:46.302Z,42.59
2019-03-08T11:43:46.294Z,43.08
2019-03-08T11:44:46.285Z,41.45
2019-03-08T11:45:46.340Z,41.96
2019-03-08T11:46:46.261Z,40.72
2019-03-08T11:47:46.251Z,40.31
2019-03-08T11:48:46.241Z,40.84
2019-03-08T11:49:46.229Z,40.12
2019-03-08T11:50:46.234Z,40.43
2019-03-08T11:51:46.216Z,40.86
2019-03-08T11:52:46.200Z,41.37
2019-03-08T11:53:46.205Z,41.80
2019-03-08T11:54:46.176Z,41.49
2019-03-08T11:55:46.168Z,41.28
2019-03-08T11:56:46.155Z,41.69
2019-03-08T11:57:46.143Z,41.78
2019-03-08T11:58:46.132Z,41.98
2019-03-08T11:59:46.130Z,42.18
2019-03-08T12:00:46.122Z,42.18
2019-03-08T12:01:46.101Z,41.80
2019-03-08T12:02:46.093Z,43.23
2019-03-08T12:03:46.079Z,41.89
2019-03-08T12:04:46.071Z,43.23
2019-03-08T12:05:46.088Z,43.23
2019-03-08T12:06:46.050Z,43.84
2019-03-08T12:07:47.325Z,43.73
2019-03-08T12:08:46.027Z,43.23
2019-03-08T12:09:46.016Z,43.51
2019-03-08T12:10:46.017Z,43.29
2019-03-08T12:11:45.995Z,42.57
2019-03-08T12:12:46.649Z,42.13
2019-03-08T12:13:45.973Z,40.84
2019-03-08T12:14:45.999Z,39.79
2019-03-08T12:15:45.984Z,39.81
2019-03-08T12:16:45.941Z,40.12
2019-03-08T12:17:45.934Z,38.27
2019-03-08T12:18:45.919Z,38.92
2019-03-08T12:19:45.909Z,39.12
2019-03-08T12:20:45.900Z,39.32
2019-03-08T12:21:45.904Z,40.03
2019-03-08T12:22:45.877Z,38.72
2019-03-08T12:23:45.866Z,38.35
2019-03-08T12:24:45.855Z,39.26
2019-03-08T12:25:45.849Z,37.07
2019-03-08T12:26:45.846Z,38.32
2019-03-08T12:27:45.826Z,37.73
2019-03-08T12:28:45.816Z,39.67
2019-03-08T12:29:45.802Z,38.47
2019-03-08T12:30:45.792Z,38.43
2019-03-08T12:31:45.794Z,35.57
2019-03-08T12:32:45.774Z,33.53
2019-03-08T12:33:45.765Z,28.86
2019-03-08T12:34:45.761Z,27.31
2019-03-08T12:35:45.739Z,27.72
2019-03-08T12:36:45.742Z,23.68
2019-03-08T12:37:45.718Z,21.92
2019-03-08T12:38:45.710Z,19.37
2019-03-08T12:39:45.698Z,18.84
2019-03-08T12:40:45.686Z,18.18
2019-03-08T12:41:45.687Z,17.81
2019-03-08T12:42:45.666Z,18.31
2019-03-08T12:43:45.655Z,19.27
2019-03-08T12:44:45.644Z,21.15
2019-03-08T12:45:45.635Z,22.70
2019-03-08T12:46:45.633Z,20.84
2019-03-08T12:47:45.615Z,20.39
2019-03-08T12:48:45.606Z,17.71
2019-03-08T12:49:45.595Z,20.51
2019-03-08T12:50:45.582Z,22.39
2019-03-08T12:51:45.585Z,23.47
2019-03-08T12:52:45.561Z,26.66